createdAt,value
2018-12-07T00:01:06.494Z,97739.44
2018-12-07T00:03:35.901Z,97736.85
2018-12-07T00:06:05.350Z,97736.85
2018-12-07T00:08:34.757Z,97735.67
2018-12-07T00:11:04.189Z,97743.26
2018-12-07T00:13:34.062Z,97737.98
2018-12-07T00:16:03.499Z,97740.77
2018-12-07T00:18:32.900Z,97736.73
2018-12-07T00:21:02.332Z,97748.31
2018-12-07T00:23:31.737Z,97733.65
2018-12-07T00:26:01.156Z,97753.31
2018-12-07T00:28:30.561Z,97746.60
2018-12-07T00:30:59.987Z,97735.96
2018-12-07T00:33:29.403Z,97730.59
2018-12-07T00:35:58.834Z,97732.88
2018-12-07T00:38:28.274Z,97734.31
2018-12-07T00:40:57.734Z,97727.20
2018-12-07T00:43:27.150Z,97725.48
2018-12-07T00:45:56.567Z,97720.58
2018-12-07T00:48:25.982Z,97722.89
2018-12-07T00:50:55.385Z,97717.02
2018-12-07T00:53:24.789Z,97721.05
2018-12-07T00:55:54.179Z,97717.59
2018-12-07T00:58:23.592Z,97714.06
2018-12-07T01:00:53.014Z,97713.19
2018-12-07T01:03:22.425Z,97706.48
2018-12-07T01:05:51.840Z,97708.76
2018-12-07T01:08:21.261Z,97709.26
2018-12-07T01:10:50.673Z,97706.64
2018-12-07T01:13:20.077Z,97702.14
2018-12-07T01:15:49.481Z,97703.58
2018-12-07T01:18:18.885Z,97697.81
2018-12-07T01:20:48.280Z,97697.44
2018-12-07T01:23:17.676Z,97695.69
2018-12-07T01:25:47.092Z,97697.91
2018-12-07T01:28:16.530Z,97700.22
2018-12-07T01:30:45.947Z,97709.21
2018-12-07T01:33:15.364Z,97701.63
2018-12-07T01:35:44.775Z,97704.81
2018-12-07T01:38:14.238Z,97699.50
2018-12-07T01:40:43.641Z,97705.84
2018-12-07T01:43:13.081Z,97702.29
2018-12-07T01:45:42.472Z,97707.28
2018-12-07T01:48:11.892Z,97696.03
2018-12-07T01:50:41.389Z,97703.32
2018-12-07T01:53:10.801Z,97693.93
2018-12-07T01:55:40.221Z,97692.59
2018-12-07T01:58:09.634Z,97689.53
2018-12-07T02:00:39.070Z,97688.66
2018-12-07T02:03:08.549Z,97686.44
2018-12-07T02:05:37.961Z,97693.16
2018-12-07T02:10:41.893Z,97679.92
2018-12-07T02:13:11.396Z,97669.66
2018-12-07T02:15:40.811Z,97662.64
2018-12-07T02:18:10.209Z,97661.80
2018-12-07T02:20:39.644Z,97664.48
2018-12-07T02:23:09.053Z,97659.59
2018-12-07T02:25:38.480Z,97663.14
2018-12-07T02:28:07.888Z,97656.91
2018-12-07T02:30:37.421Z,97652.48
2018-12-07T02:33:07.913Z,97653.81
2018-12-07T02:35:37.326Z,97656.03
2018-12-07T02:38:06.733Z,97651.63
2018-12-07T02:40:36.150Z,97645.77
2018-12-07T02:43:05.562Z,97645.77
2018-12-07T02:45:34.974Z,97638.28
2018-12-07T02:48:04.393Z,97637.44
2018-12-07T02:50:33.949Z,97624.09
2018-12-07T02:53:03.365Z,97624.09
2018-12-07T02:55:32.781Z,97614.70
2018-12-07T02:58:02.765Z,97614.23
2018-12-07T03:00:32.222Z,97621.04
2018-12-07T03:03:01.641Z,97614.80
2018-12-07T03:05:31.041Z,97611.34
2018-12-07T03:08:00.466Z,97618.92
2018-12-07T03:10:29.877Z,97616.23
2018-12-07T03:12:59.302Z,97614.89
2018-12-07T03:15:28.697Z,97610.00
2018-12-07T03:17:58.137Z,97615.36
2018-12-07T03:20:27.552Z,97615.46
2018-12-07T03:22:56.969Z,97607.87
2018-12-07T03:25:26.373Z,97598.99
2018-12-07T03:27:55.812Z,97598.12
2018-12-07T03:30:25.214Z,97596.31
2018-12-07T03:32:54.657Z,97589.60
2018-12-07T03:35:24.057Z,97593.79
2018-12-07T03:37:53.503Z,97586.05
2018-12-07T03:40:22.964Z,97584.70
2018-12-07T03:42:52.589Z,97582.49
2018-12-07T03:45:21.993Z,97584.80
2018-12-07T03:47:52.256Z,97581.31
2018-12-07T03:50:21.769Z,97584.00
2018-12-07T03:52:51.674Z,97577.69
2018-12-07T03:55:21.144Z,97579.03
2018-12-07T03:57:50.593Z,97576.35
2018-12-07T04:00:19.998Z,97582.66
2018-12-07T04:02:49.426Z,97577.08
2018-12-07T04:05:19.959Z,97584.92
2018-12-07T04:07:49.430Z,97571.93
2018-12-07T04:10:18.849Z,97577.50
2018-12-07T04:12:48.305Z,97564.95
2018-12-07T04:15:17.737Z,97578.47
2018-12-07T04:17:47.385Z,97570.52
2018-12-07T04:20:16.806Z,97569.19
2018-12-07T04:22:46.205Z,97575.33
2018-12-07T04:25:15.794Z,97569.77
2018-12-07T04:27:47.266Z,97581.36
2018-12-07T04:30:25.427Z,97576.87
2018-12-07T04:32:54.961Z,97579.55
2018-12-07T04:35:24.359Z,97577.71
2018-12-07T04:37:53.780Z,97569.20
2018-12-07T04:40:23.181Z,97568.33
2018-12-07T04:42:52.578Z,97566.52
2018-12-07T04:45:21.993Z,97558.56
2018-12-07T04:47:52.281Z,97551.39
2018-12-07T04:50:21.685Z,97550.05
2018-12-07T04:52:51.077Z,97559.91
2018-12-07T04:55:20.489Z,97559.91
2018-12-07T04:57:50.013Z,97542.56
2018-12-07T05:00:19.477Z,97545.63
2018-12-07T05:02:48.882Z,97549.17
2018-12-07T05:05:18.303Z,97552.89
2018-12-07T05:07:47.719Z,97543.50
2018-12-07T05:10:17.177Z,97552.02
2018-12-07T05:12:46.580Z,97544.48
2018-12-07T05:15:15.975Z,97531.53
2018-12-07T05:17:45.405Z,97529.79
2018-12-07T05:20:14.831Z,97535.55
2018-12-07T05:22:44.266Z,97537.37
2018-12-07T05:25:14.617Z,97528.85
2018-12-07T05:27:44.053Z,97530.66
2018-12-07T05:30:13.448Z,97528.45
2018-12-07T05:32:42.921Z,97527.52
2018-12-07T05:35:12.323Z,97527.98
2018-12-07T05:37:41.779Z,97528.08
2018-12-07T05:40:11.184Z,97525.86
2018-12-07T05:42:40.605Z,97532.56
2018-12-07T05:45:10.032Z,97541.08
2018-12-07T05:47:40.494Z,97532.10
2018-12-07T05:50:09.909Z,97528.08
2018-12-07T05:52:39.353Z,97526.73
2018-12-07T05:55:08.765Z,97534.31
2018-12-07T05:57:38.185Z,97526.17
2018-12-07T06:00:08.977Z,97536.43
2018-12-07T06:02:38.417Z,97528.38
2018-12-07T06:05:08.960Z,97531.91
2018-12-07T06:07:38.385Z,97525.60
2018-12-07T06:10:07.789Z,97517.66
2018-12-07T06:12:37.229Z,97515.81
2018-12-07T06:15:06.885Z,97513.89
2018-12-07T06:17:37.084Z,97506.67
2018-12-07T06:20:06.821Z,97506.16
2018-12-07T06:22:36.235Z,97503.28
2018-12-07T06:25:06.227Z,97506.92
2018-12-07T06:27:35.733Z,97491.31
2018-12-07T06:30:05.737Z,97486.05
2018-12-07T06:32:36.343Z,97484.61
2018-12-07T06:35:09.590Z,97484.14
2018-12-07T06:37:38.988Z,97481.77
2018-12-07T06:40:09.069Z,97481.19
2018-12-07T06:42:38.481Z,97477.55
2018-12-07T06:45:08.012Z,97477.44
2018-12-07T06:47:37.479Z,97471.91
2018-12-07T06:50:09.289Z,97464.74
2018-12-07T06:52:38.712Z,97465.98
2018-12-07T06:55:08.164Z,97460.05
2018-12-07T06:57:37.678Z,97453.81
2018-12-07T07:00:12.181Z,97463.87
2018-12-07T07:02:41.585Z,97446.95
2018-12-07T07:05:11.221Z,97453.65
2018-12-07T07:07:40.634Z,97440.14
2018-12-07T07:10:18.861Z,97447.72
2018-12-07T07:12:48.281Z,97444.63
2018-12-07T07:15:17.696Z,97440.14
2018-12-07T07:17:47.098Z,97454.79
2018-12-07T07:20:16.576Z,97455.56
2018-12-07T07:22:46.001Z,97447.98
2018-12-07T07:25:15.401Z,97469.38
2018-12-07T07:27:44.809Z,97454.99
2018-12-07T07:30:14.364Z,97461.23
2018-12-07T07:32:44.401Z,97463.34
2018-12-07T07:35:13.813Z,97461.03
2018-12-07T07:37:44.376Z,97462.77
2018-12-07T07:40:13.771Z,97454.63
2018-12-07T07:42:43.273Z,97449.26
2018-12-07T07:45:12.661Z,97444.77
2018-12-07T07:47:42.080Z,97432.22
2018-12-07T07:50:11.477Z,97429.80
2018-12-07T07:52:40.873Z,97432.89
2018-12-07T07:55:10.276Z,97432.02
2018-12-07T07:57:39.706Z,97430.20
2018-12-07T08:00:09.102Z,97428.00
2018-12-07T08:02:38.510Z,97424.84
2018-12-07T08:05:07.920Z,97422.09
2018-12-07T08:07:37.326Z,97421.16
2018-12-07T08:10:06.740Z,97407.34
2018-12-07T08:12:36.185Z,97408.58
2018-12-07T08:15:06.075Z,97406.40
2018-12-07T08:17:36.464Z,97406.77
2018-12-07T08:20:06.324Z,97401.80
2018-12-07T08:22:36.903Z,97393.75
2018-12-07T08:25:06.756Z,97395.94
2018-12-07T08:27:36.202Z,97395.94
2018-12-07T08:30:07.993Z,97395.36
2018-12-07T08:32:37.509Z,97390.39
2018-12-07T08:35:07.388Z,97381.11
2018-12-07T08:37:36.848Z,97385.50
2018-12-07T08:40:07.985Z,97382.34
2018-12-07T08:42:37.437Z,97377.34
2018-12-07T08:45:08.220Z,97382.71
2018-12-07T08:47:39.384Z,97374.19
2018-12-07T08:50:09.125Z,97374.66
2018-12-07T08:52:38.548Z,97361.63
2018-12-07T08:55:07.977Z,97368.25
2018-12-07T08:57:37.385Z,97366.61
2018-12-07T09:00:08.682Z,97363.83
2018-12-07T09:02:38.106Z,97360.20
2018-12-07T09:05:07.577Z,97357.98
2018-12-07T09:07:37.578Z,97361.14
2018-12-07T09:10:07.208Z,97360.20
2018-12-07T09:12:36.616Z,97357.89
2018-12-07T09:15:06.153Z,97357.41
2018-12-07T09:17:35.557Z,97352.45
2018-12-07T09:20:06.412Z,97348.89
2018-12-07T09:22:35.828Z,97337.69
2018-12-07T09:25:05.537Z,97334.50
2018-12-07T09:27:34.957Z,97330.98
2018-12-07T09:30:04.855Z,97338.05
2018-12-07T09:32:34.274Z,97331.34
2018-12-07T09:35:03.778Z,97325.11
2018-12-07T09:37:33.181Z,97314.77
2018-12-07T09:40:02.760Z,97315.14
2018-12-07T09:42:32.157Z,97307.59
2018-12-07T09:45:01.701Z,97305.75
2018-12-07T09:47:31.148Z,97295.99
2018-12-07T09:50:00.576Z,97290.92
2018-12-07T09:52:30.026Z,97285.55
2018-12-07T09:54:59.457Z,97281.13
2018-12-07T09:57:28.940Z,97275.66
2018-12-07T09:59:58.344Z,97271.63
2018-12-07T10:02:27.821Z,97257.27
2018-12-07T10:04:57.221Z,97261.88
2018-12-07T10:07:26.662Z,97261.41
2018-12-07T10:09:56.073Z,97252.02
2018-12-07T10:12:25.538Z,97243.96
2018-12-07T10:14:54.957Z,97239.83
2018-12-07T10:17:25.117Z,97233.02
2018-12-07T10:19:54.518Z,97227.65
2018-12-07T10:22:23.948Z,97222.39
2018-12-07T10:24:53.352Z,97221.05
2018-12-07T10:27:22.789Z,97211.66
2018-12-07T10:29:52.196Z,97210.78
2018-12-07T10:32:21.616Z,97202.16
2018-12-07T10:34:51.033Z,97204.95
2018-12-07T10:37:20.485Z,97203.89
2018-12-07T10:39:49.905Z,97198.53
2018-12-07T10:42:19.329Z,97178.80
2018-12-07T10:44:48.725Z,97187.28
2018-12-07T10:47:18.155Z,97177.53
2018-12-07T10:49:47.541Z,97171.69
2018-12-07T10:52:16.951Z,97166.11
2018-12-07T10:54:46.373Z,97156.34
2018-12-07T10:57:15.777Z,97156.34
2018-12-07T10:59:46.891Z,97150.87
2018-12-07T11:02:21.802Z,97138.91
2018-12-07T11:04:56.373Z,97136.98
2018-12-07T11:07:30.946Z,97136.98
2018-12-07T11:10:05.539Z,97136.11
2018-12-07T11:12:40.009Z,97126.72
2018-12-07T11:15:14.543Z,97125.73
2018-12-07T11:17:49.061Z,97121.35
2018-12-07T11:20:23.441Z,97112.83
2018-12-07T11:22:58.069Z,97109.64
2018-12-07T11:25:33.661Z,97098.07
2018-12-07T11:28:08.153Z,97094.88
2018-12-07T11:30:42.725Z,97091.72
2018-12-07T11:33:52.161Z,97086.83
2018-12-07T11:36:21.596Z,97088.17
2018-12-07T11:38:51.023Z,97072.07
2018-12-07T11:41:20.467Z,97070.25
2018-12-07T11:43:51.934Z,97067.20
2018-12-07T11:46:21.372Z,97058.65
2018-12-07T11:48:50.784Z,97053.67
2018-12-07T11:51:20.224Z,97055.02
2018-12-07T11:53:49.694Z,97051.11
2018-12-07T11:56:19.418Z,97046.97
2018-12-07T11:58:48.828Z,97046.97
2018-12-07T12:01:18.285Z,97038.92
2018-12-07T12:03:47.740Z,97033.44
2018-12-07T12:06:17.185Z,97029.41
2018-12-07T12:08:46.605Z,97022.70
2018-12-07T12:11:18.097Z,97020.89
2018-12-07T12:13:47.530Z,97014.06
2018-12-07T12:16:17.001Z,97011.50
2018-12-07T12:18:46.401Z,97006.02
2018-12-07T12:21:15.826Z,97001.52
2018-12-07T12:23:45.252Z,96996.14
2018-12-07T12:26:14.692Z,97003.22
2018-12-07T12:28:44.096Z,96993.82
2018-12-07T12:31:13.537Z,96996.50
2018-12-07T12:33:42.973Z,96986.75
2018-12-07T12:36:17.037Z,96985.77
2018-12-07T12:38:43.833Z,96984.43
2018-12-07T12:41:13.277Z,96979.45
2018-12-07T12:43:42.689Z,96977.72
2018-12-07T12:46:12.122Z,96972.35
2018-12-07T12:48:41.576Z,96974.20
2018-12-07T12:51:10.972Z,96968.84
2018-12-07T12:53:40.399Z,96969.20
2018-12-07T12:56:09.814Z,96969.31
2018-12-07T12:58:39.216Z,96951.31
2018-12-07T13:01:08.644Z,96961.26
2018-12-07T13:03:38.057Z,96957.70
2018-12-07T13:06:07.486Z,96963.55
2018-12-07T13:08:38.017Z,96953.32
2018-12-07T13:11:07.441Z,96956.09
2018-12-07T13:13:36.884Z,96959.16
2018-12-07T13:16:07.253Z,96953.32
2018-12-07T13:18:36.692Z,96958.69
2018-12-07T13:21:06.219Z,96957.34
2018-12-07T13:23:35.640Z,96954.27
2018-12-07T13:26:05.072Z,96947.95
2018-12-07T13:28:34.525Z,96950.64
2018-12-07T13:31:03.933Z,96944.77
2018-12-07T13:33:33.381Z,96943.42
2018-12-07T13:36:02.835Z,96935.88
2018-12-07T13:38:32.569Z,96930.00
2018-12-07T13:41:02.057Z,96921.59
2018-12-07T13:43:31.581Z,96926.09
2018-12-07T13:46:01.286Z,96925.23
2018-12-07T13:48:30.905Z,96921.59
2018-12-07T13:51:00.420Z,96917.17
2018-12-07T13:53:30.330Z,96912.80
2018-12-07T13:55:59.956Z,96912.05
2018-12-07T13:58:29.416Z,96910.31
2018-12-07T14:00:59.116Z,96927.00
2018-12-07T14:03:28.755Z,96921.16
2018-12-07T14:05:59.433Z,96918.47
2018-12-07T14:08:29.085Z,96918.20
2018-12-07T14:10:59.036Z,96909.67
2018-12-07T14:13:28.715Z,96913.70
2018-12-07T14:15:58.675Z,96911.48
2018-12-07T14:18:28.831Z,96904.42
2018-12-07T14:20:58.383Z,96909.39
2018-12-07T14:23:27.931Z,96908.05
2018-12-07T14:25:57.455Z,96909.31
2018-12-07T14:28:27.411Z,96912.00
2018-12-07T14:30:57.495Z,96912.83
2018-12-07T14:33:27.257Z,96907.46
2018-12-07T14:35:56.879Z,96899.80
2018-12-07T14:38:26.408Z,96902.61
2018-12-07T14:40:55.918Z,96899.80
2018-12-07T14:43:25.699Z,96898.47
2018-12-07T14:45:55.383Z,96888.68
2018-12-07T14:48:25.095Z,96881.89
2018-12-07T14:50:56.385Z,96878.34
2018-12-07T14:53:25.874Z,96867.97
2018-12-07T14:55:55.424Z,96870.77
2018-12-07T14:58:24.976Z,96870.65
2018-12-07T15:00:55.621Z,96864.69
2018-12-07T15:03:25.294Z,96864.09
2018-12-07T15:05:54.937Z,96861.41
2018-12-07T15:08:24.894Z,96856.55
2018-12-07T15:10:54.408Z,96850.20
2018-12-07T15:13:24.294Z,96847.05
2018-12-07T15:15:53.801Z,96846.66
2018-12-07T15:18:23.380Z,96842.27
2018-12-07T15:20:52.933Z,96844.56
2018-12-07T15:23:22.540Z,96841.28
2018-12-07T15:25:58.482Z,96839.11
2018-12-07T15:28:28.038Z,96839.59
2018-12-07T15:30:57.436Z,96834.70
2018-12-07T15:33:27.223Z,96840.93
2018-12-07T15:35:56.762Z,96834.58
2018-12-07T15:38:26.401Z,96830.67
2018-12-07T15:40:55.843Z,96827.12
2018-12-07T15:43:25.598Z,96833.08
2018-12-07T15:45:57.604Z,96829.66
2018-12-07T15:48:27.256Z,96831.50
2018-12-07T15:50:56.814Z,96837.34
2018-12-07T15:53:26.508Z,96809.02
2018-12-07T15:55:56.159Z,96807.83
2018-12-07T15:58:25.955Z,96801.48
2018-12-07T16:00:55.542Z,96810.98
2018-12-07T16:03:25.213Z,96795.01
2018-12-07T16:05:54.747Z,96798.05
2018-12-07T16:08:25.045Z,96791.34
2018-12-07T16:10:55.010Z,96792.20
2018-12-07T16:13:24.738Z,96778.31
2018-12-07T16:15:54.294Z,96768.06
2018-12-07T16:18:23.778Z,96762.22
2018-12-07T16:20:53.318Z,96769.28
2018-12-07T16:23:24.260Z,96759.53
2018-12-07T16:25:54.324Z,96751.48
2018-12-07T16:28:24.212Z,96751.09
2018-12-07T16:30:53.787Z,96748.05
2018-12-07T16:33:23.532Z,96741.83
2018-12-07T16:35:53.093Z,96736.19
2018-12-07T16:38:22.647Z,96720.69
2018-12-07T16:40:52.137Z,96715.92
2018-12-07T16:43:22.677Z,96706.77
2018-12-07T16:45:52.437Z,96705.55
2018-12-07T16:48:23.252Z,96699.44
2018-12-07T16:50:53.272Z,96687.58
2018-12-07T16:53:22.923Z,96693.80
2018-12-07T16:55:52.711Z,96689.19
2018-12-07T16:58:22.437Z,96690.31
2018-12-07T17:00:51.969Z,96690.31
2018-12-07T17:03:21.382Z,96679.59
2018-12-07T17:05:50.813Z,96682.27
2018-12-07T17:08:20.796Z,96683.61
2018-12-07T17:10:50.350Z,96671.55
2018-12-07T17:13:19.870Z,96662.90
2018-12-07T17:15:50.515Z,96659.11
2018-12-07T17:18:20.043Z,96644.47
2018-12-07T17:20:49.561Z,96635.56
2018-12-07T17:23:19.120Z,96631.19
2018-12-07T17:25:48.749Z,96625.34
2018-12-07T17:28:18.374Z,96628.86
2018-12-07T17:30:47.942Z,96624.48
2018-12-07T17:33:17.515Z,96623.26
2018-12-07T17:35:47.094Z,96625.94
2018-12-07T17:38:16.777Z,96612.53
2018-12-07T17:40:46.443Z,96618.25
2018-12-07T17:43:16.190Z,96606.92
2018-12-07T17:45:45.787Z,96591.30
2018-12-07T17:48:15.320Z,96576.55
2018-12-07T17:50:44.919Z,96564.00
2018-12-07T17:53:15.428Z,96555.95
2018-12-07T17:55:46.084Z,96549.98
2018-12-07T17:58:15.759Z,96552.28
2018-12-07T18:00:45.297Z,96553.14
2018-12-07T18:03:14.761Z,96557.05
2018-12-07T18:05:44.328Z,96559.73
2018-12-07T18:08:13.888Z,96564.88
2018-12-07T18:10:43.408Z,96570.98
2018-12-07T18:13:13.160Z,96575.88
2018-12-07T18:15:43.016Z,96570.51
2018-12-07T18:18:13.605Z,96565.88
2018-12-07T18:20:43.181Z,96561.34
2018-12-07T18:23:13.109Z,96554.16
2018-12-07T18:25:43.426Z,96550.02
2018-12-07T18:28:12.899Z,96542.34
2018-12-07T18:30:42.366Z,96539.19
2018-12-07T18:33:11.801Z,96538.67
2018-12-07T18:35:41.318Z,96535.39
2018-12-07T18:38:11.253Z,96524.18
2018-12-07T18:40:41.058Z,96513.83
2018-12-07T18:43:12.429Z,96511.63
2018-12-07T18:45:42.288Z,96508.47
2018-12-07T18:48:12.101Z,96505.66
2018-12-07T18:50:41.989Z,96500.29
2018-12-07T18:53:11.719Z,96497.95
2018-12-07T18:55:41.405Z,96481.77
2018-12-07T18:58:11.069Z,96470.52
2018-12-07T19:00:41.053Z,96465.41
2018-12-07T19:03:10.900Z,96460.04
2018-12-07T19:05:42.357Z,96456.50
2018-12-07T19:08:13.441Z,96447.10
2018-12-07T19:10:44.251Z,96433.59
2018-12-07T19:13:14.402Z,96421.52
2018-12-07T19:15:44.225Z,96426.02
2018-12-07T19:18:15.398Z,96425.16
2018-12-07T19:20:46.146Z,96430.52
2018-12-07T19:23:15.758Z,96417.97
2018-12-07T19:25:45.527Z,96431.26
2018-12-07T19:28:15.477Z,96424.67
2018-12-07T19:30:45.563Z,96399.53
2018-12-07T19:33:15.513Z,96404.29
2018-12-07T19:35:45.556Z,96397.10
2018-12-07T19:38:15.390Z,96389.44
2018-12-07T19:40:45.142Z,96383.55
2018-12-07T19:43:15.025Z,96378.70
2018-12-07T19:45:44.999Z,96367.97
2018-12-07T19:48:15.074Z,96360.39
2018-12-07T19:50:45.278Z,96348.66
2018-12-07T19:53:16.686Z,96344.64
2018-12-07T19:55:46.288Z,96344.55
2018-12-07T19:58:15.882Z,96331.83
2018-12-07T20:00:45.391Z,96333.81
2018-12-07T20:03:14.842Z,96321.60
2018-12-07T20:05:44.305Z,96317.92
2018-12-07T20:08:14.113Z,96310.86
2018-12-07T20:10:44.024Z,96315.38
2018-12-07T20:13:13.804Z,96309.39
2018-12-07T20:15:43.674Z,96305.75
2018-12-07T20:18:14.862Z,96305.75
2018-12-07T20:20:44.638Z,96300.73
2018-12-07T20:23:14.575Z,96302.06
2018-12-07T20:25:44.255Z,96296.22
2018-12-07T20:28:14.341Z,96291.58
2018-12-07T20:30:44.065Z,96293.27
2018-12-07T20:33:14.203Z,96275.00
2018-12-07T20:35:43.759Z,96246.81
2018-12-07T20:38:13.356Z,96259.23
2018-12-07T20:40:44.463Z,96272.18
2018-12-07T20:43:14.713Z,96289.63
2018-12-07T20:45:44.990Z,96299.37
2018-12-07T20:48:14.690Z,96297.55
2018-12-07T20:50:44.217Z,96297.06
2018-12-07T20:53:13.905Z,96288.02
2018-12-07T20:55:45.796Z,96287.06
2018-12-07T20:58:15.428Z,96284.72
2018-12-07T21:00:45.325Z,96281.55
2018-12-07T21:03:15.298Z,96277.53
2018-12-07T21:06:10.078Z,96268.99
2018-12-07T21:09:00.482Z,96277.91
2018-12-07T21:11:40.629Z,96263.14
2018-12-07T21:14:32.131Z,96266.17
2018-12-07T21:17:12.343Z,96254.48
2018-12-07T21:19:47.452Z,96252.62
2018-12-07T21:22:17.761Z,96240.92
2018-12-07T21:24:47.710Z,96237.23
2018-12-07T21:27:17.516Z,96246.16
2018-12-07T21:29:57.949Z,96231.87
2018-12-07T21:32:27.416Z,96227.84
2018-12-07T21:35:02.795Z,96228.09
2018-12-07T21:37:32.759Z,96223.92
2018-12-07T21:40:24.354Z,96219.80
2018-12-07T21:42:53.938Z,96210.88
2018-12-07T21:45:23.513Z,96206.13
2018-12-07T21:48:12.382Z,96208.44
2018-12-07T21:50:43.870Z,96203.58
2018-12-07T21:53:13.446Z,96213.08
2018-12-07T21:55:43.269Z,96209.05
2018-12-07T21:58:12.983Z,96200.52
2018-12-07T22:00:42.498Z,96214.07
2018-12-07T22:03:11.959Z,96209.19
2018-12-07T22:05:41.539Z,96213.22
2018-12-07T22:08:11.334Z,96214.21
2018-12-07T22:10:41.058Z,96214.21
2018-12-07T22:13:11.936Z,96205.64
2018-12-07T22:15:41.504Z,96212.35
2018-12-07T22:18:11.070Z,96221.64
2018-12-07T22:20:41.034Z,96210.05
2018-12-07T22:23:10.701Z,96207.70
2018-12-07T22:25:40.407Z,96201.51
2018-12-07T22:28:10.109Z,96206.02
2018-12-07T22:30:39.859Z,96199.31
2018-12-07T22:33:09.688Z,96203.81
2018-12-07T22:35:39.536Z,96221.75
2018-12-07T22:38:09.340Z,96213.83
2018-12-07T22:40:39.135Z,96209.45
2018-12-07T22:43:08.769Z,96207.25
2018-12-07T22:45:39.276Z,96213.97
2018-12-07T22:48:08.717Z,96209.56
2018-12-07T22:50:38.572Z,96223.50
2018-12-07T22:53:08.024Z,96225.31
2018-12-07T22:55:37.444Z,96237.27
2018-12-07T22:58:07.253Z,96235.20
2018-12-07T23:00:38.754Z,96229.96
2018-12-07T23:03:10.234Z,96233.98
2018-12-07T23:05:39.672Z,96232.64
2018-12-07T23:08:09.117Z,96225.94
2018-12-07T23:10:38.528Z,96229.09
2018-12-07T23:13:08.005Z,96232.78
2018-12-07T23:15:37.424Z,96232.27
2018-12-07T23:18:06.855Z,96231.05
2018-12-07T23:20:36.269Z,96237.77
2018-12-07T23:23:05.725Z,96240.11
2018-12-07T23:25:35.142Z,96247.30
2018-12-07T23:28:04.576Z,96247.30
2018-12-07T23:30:34.021Z,96248.77
2018-12-07T23:33:03.470Z,96248.39
2018-12-07T23:35:32.909Z,96240.34
2018-12-07T23:38:02.366Z,96244.36
2018-12-07T23:40:31.821Z,96238.65
2018-12-07T23:43:02.438Z,96244.12
2018-12-07T23:45:31.888Z,96243.50
2018-12-07T23:48:01.445Z,96241.33
2018-12-07T23:50:31.723Z,96244.12
2018-12-07T23:53:01.197Z,96246.45
2018-12-07T23:55:30.612Z,96261.22
2018-12-07T23:58:00.026Z,96266.72
